Time;durP1;ratioP1;P1;durP2;ratioP2;P2;SDS_P1;SDS_P2;PMS_P1;PMS_P2;Temp;Humidity;BMP_temperature;BMP_pressure;BME280_temperature;BME280_humidity;BME280_pressure;Samples;Min_cycle;Max_cycle;Signal;HPM_P1;HPM_P2
2022/10/01 00:02:06;;;;;;;12.93;11.63;;;;;;;;;;5112202;28;20683;-77
2022/10/01 00:04:36;;;;;;;14.83;11.50;;;;;;;;;;5094054;28;20750;-77
2022/10/01 00:07:08;;;;;;;12.30;11.03;;;;;;;;;;5091875;28;20209;-78
2022/10/01 00:09:38;;;;;;;11.73;10.57;;;;;;;;;;5091233;28;20668;-78
2022/10/01 00:12:07;;;;;;;14.40;11.60;;;;;;;;;;5091890;28;20604;-75
2022/10/01 00:14:37;;;;;;;12.53;11.17;;;;;;;;;;5094091;28;20206;-77
2022/10/01 00:17:06;;;;;;;12.17;10.97;;;;;;;;;;5095665;28;20273;-75
2022/10/01 00:19:34;;;;;;;13.00;11.33;;;;;;;;;;5095180;28;20207;-77
2022/10/01 00:22:03;;;;;;;12.43;11.07;;;;;;;;;;5095490;28;20213;-78
2022/10/01 00:24:31;;;;;;;11.93;10.67;;;;;;;;;;5095213;28;20215;-78
2022/10/01 00:27:03;;;;;;;12.83;10.87;;;;;;;;;;5094994;28;20295;-77
2022/10/01 00:29:31;;;;;;;11.97;10.73;;;;;;;;;;5094570;28;20211;-77
2022/10/01 00:32:00;;;;;;;13.23;10.43;;;;;;;;;;5095453;28;20211;-77
2022/10/01 00:34:29;;;;;;;11.80;10.60;;;;;;;;;;5095186;28;20288;-78
2022/10/01 00:36:57;;;;;;;12.07;10.70;;;;;;;;;;5095369;28;20203;-76
2022/10/01 00:39:25;;;;;;;15.30;10.83;;;;;;;;;;5094959;28;20207;-78
2022/10/01 00:41:53;;;;;;;11.93;10.40;;;;;;;;;;5095352;28;20621;-77
2022/10/01 00:44:34;;;;;;;12.03;10.83;;;;;;;;;;5094951;28;20310;-78
2022/10/01 00:47:05;;;;;;;14.47;10.30;;;;;;;;;;5095130;28;20222;-78
2022/10/01 00:49:35;;;;;;;13.23;10.50;;;;;;;;;;5094511;28;20633;-78
2022/10/01 00:52:04;;;;;;;11.70;10.50;;;;;;;;;;5094916;28;20214;-78
2022/10/01 00:54:35;;;;;;;12.43;11.23;;;;;;;;;;5094900;28;20672;-77
2022/10/01 00:57:07;;;;;;;12.77;11.47;;;;;;;;;;5094826;28;20232;-75
2022/10/01 00:59:37;;;;;;;12.37;11.07;;;;;;;;;;5094784;28;20211;-78
2022/10/01 01:02:05;;;;;;;15.13;12.30;;;;;;;;;;5095014;28;20233;-76
2022/10/01 01:04:33;;;;;;;15.43;13.70;;;;;;;;;;5094652;28;20626;-76
2022/10/01 01:07:04;;;;;;;16.87;14.00;;;;;;;;;;5094627;28;20237;-77
2022/10/01 01:09:34;;;;;;;15.93;14.27;;;;;;;;;;5094274;28;20211;-78
2022/10/01 01:12:07;;;;;;;15.93;14.37;;;;;;;;;;5094478;28;20673;-78
2022/10/01 01:14:39;;;;;;;18.00;15.20;;;;;;;;;;5094551;28;20203;-79
2022/10/01 01:17:10;;;;;;;16.33;14.73;;;;;;;;;;5094753;28;20199;-77
2022/10/01 01:19:48;;;;;;;19.37;15.93;;;;;;;;;;5093958;28;20229;-79
2022/10/01 01:22:19;;;;;;;17.73;15.93;;;;;;;;;;5094399;28;20187;-77
2022/10/01 01:24:54;;;;;;;19.87;16.47;;;;;;;;;;5093935;28;20195;-77
2022/10/01 01:27:33;;;;;;;19.00;15.47;;;;;;;;;;5093839;28;20798;-77
2022/10/01 01:30:07;;;;;;;18.63;16.73;;;;;;;;;;5094103;28;20210;-78
2022/10/01 01:32:41;;;;;;;18.83;16.70;;;;;;;;;;5094110;28;20219;-77
2022/10/01 01:35:10;;;;;;;21.07;17.80;;;;;;;;;;5114479;28;20517;-77
2022/10/01 01:37:40;;;;;;;19.67;17.67;;;;;;;;;;5111727;28;20202;-78
2022/10/01 01:40:11;;;;;;;21.40;19.17;;;;;;;;;;5093760;28;20799;-76
2022/10/01 01:42:42;;;;;;;22.23;19.00;;;;;;;;;;5093821;28;20664;-77
2022/10/01 01:45:14;;;;;;;21.77;19.47;;;;;;;;;;5094280;28;20203;-78
2022/10/01 01:47:44;;;;;;;21.60;19.30;;;;;;;;;;5094316;28;20190;-77
2022/10/01 01:50:14;;;;;;;21.97;19.77;;;;;;;;;;5093999;28;20715;-77
2022/10/01 01:52:43;;;;;;;24.10;21.53;;;;;;;;;;5094515;28;20214;-77
2022/10/01 01:55:17;;;;;;;24.60;21.93;;;;;;;;;;5094525;28;20213;-78
2022/10/01 01:57:46;;;;;;;24.67;22.13;;;;;;;;;;5094120;28;20197;-77
2022/10/01 02:00:18;;;;;;;25.33;22.63;;;;;;;;;;5093800;28;20217;-76
2022/10/01 02:02:49;;;;;;;25.37;22.23;;;;;;;;;;5115020;28;20305;-77
2022/10/01 02:05:19;;;;;;;24.60;22.03;;;;;;;;;;5115056;28;20191;-78
2022/10/01 02:08:06;;;;;;;24.53;21.93;;;;;;;;;;5115313;28;20242;-77
2022/10/01 02:10:41;;;;;;;24.53;21.90;;;;;;;;;;5109595;28;20680;-78
2022/10/01 02:13:16;;;;;;;25.87;21.67;;;;;;;;;;5096534;28;20190;-78
2022/10/01 02:15:58;;;;;;;24.20;21.63;;;;;;;;;;5096917;28;20187;-75
2022/10/01 02:18:30;;;;;;;27.93;23.77;;;;;;;;;;5096092;28;20781;-77
2022/10/01 02:21:04;;;;;;;25.47;22.67;;;;;;;;;;5095873;28;20218;-77
2022/10/01 02:23:35;;;;;;;29.40;24.80;;;;;;;;;;5094658;28;20210;-78
2022/10/01 02:26:12;;;;;;;28.73;23.93;;;;;;;;;;5094576;28;20582;-76
2022/10/01 02:28:45;;;;;;;26.67;23.77;;;;;;;;;;5093403;28;20199;-78
2022/10/01 02:31:18;;;;;;;27.07;24.17;;;;;;;;;;5092930;28;20294;-76
2022/10/01 02:33:47;;;;;;;28.90;24.27;;;;;;;;;;5092769;28;20226;-76
2022/10/01 02:36:16;;;;;;;29.03;25.80;;;;;;;;;;5092140;28;20203;-76
2022/10/01 02:38:45;;;;;;;32.77;27.27;;;;;;;;;;5093214;28;20711;-77
2022/10/01 02:41:20;;;;;;;32.43;26.03;;;;;;;;;;5093181;28;20195;-75
2022/10/01 02:43:52;;;;;;;31.93;26.57;;;;;;;;;;5093534;28;20211;-76
2022/10/01 02:46:27;;;;;;;31.40;27.07;;;;;;;;;;5092575;28;20238;-78
2022/10/01 02:48:56;;;;;;;30.80;26.63;;;;;;;;;;5092693;28;20225;-76
2022/10/01 02:51:27;;;;;;;33.93;28.50;;;;;;;;;;5093772;28;20565;-78
2022/10/01 02:53:59;;;;;;;34.63;27.83;;;;;;;;;;5093222;28;20203;-78
2022/10/01 02:59:16;;;;;;;32.70;26.97;;;;;;;;;;5093106;28;20203;-78
2022/10/01 03:01:46;;;;;;;36.07;29.53;;;;;;;;;;5093347;28;20207;-76
2022/10/01 03:04:21;;;;;;;32.83;27.10;;;;;;;;;;5092420;28;20256;-76
2022/10/01 03:06:49;;;;;;;41.37;31.07;;;;;;;;;;5112779;28;20218;-77
2022/10/01 03:09:18;;;;;;;34.30;27.97;;;;;;;;;;5112790;28;20249;-77
2022/10/01 03:11:48;;;;;;;36.73;29.37;;;;;;;;;;5097143;28;20214;-75
2022/10/01 03:14:17;;;;;;;35.27;28.73;;;;;;;;;;5092096;28;20218;-78
2022/10/01 03:16:49;;;;;;;41.37;31.83;;;;;;;;;;5092565;28;20206;-77
2022/10/01 03:19:19;;;;;;;36.07;29.30;;;;;;;;;;5091947;28;20304;-77
2022/10/01 03:21:48;;;;;;;34.03;27.70;;;;;;;;;;5092356;28;20229;-78
2022/10/01 03:24:16;;;;;;;31.47;26.90;;;;;;;;;;5092241;28;20211;-78
2022/10/01 03:26:45;;;;;;;34.03;26.57;;;;;;;;;;5096576;28;20281;-77
2022/10/01 03:29:13;;;;;;;29.13;25.93;;;;;;;;;;5112390;28;20214;-78
2022/10/01 03:31:42;;;;;;;29.53;25.50;;;;;;;;;;5112265;28;20221;-77
2022/10/01 03:34:12;;;;;;;32.57;25.97;;;;;;;;;;5112392;28;20237;-78
2022/10/01 03:36:45;;;;;;;32.13;26.23;;;;;;;;;;5110087;28;20202;-76
2022/10/01 03:39:14;;;;;;;32.70;26.63;;;;;;;;;;5103569;28;20202;-78
2022/10/01 03:41:43;;;;;;;33.77;27.17;;;;;;;;;;5112296;28;20614;-77
2022/10/01 03:44:12;;;;;;;31.63;26.60;;;;;;;;;;5112256;28;20209;-77
2022/10/01 03:46:40;;;;;;;32.70;26.27;;;;;;;;;;5103210;28;20238;-78
2022/10/01 03:49:09;;;;;;;33.40;27.70;;;;;;;;;;5091107;28;20206;-77
2022/10/01 03:51:41;;;;;;;32.73;27.37;;;;;;;;;;5092148;28;20552;-76
2022/10/01 03:54:10;;;;;;;36.17;28.10;;;;;;;;;;5091819;28;20203;-77
2022/10/01 03:56:41;;;;;;;35.83;28.70;;;;;;;;;;5092002;28;20218;-77
2022/10/01 03:59:10;;;;;;;38.73;29.00;;;;;;;;;;5091408;28;20219;-77
2022/10/01 04:01:39;;;;;;;38.83;29.63;;;;;;;;;;5092093;28;20211;-76
2022/10/01 04:04:10;;;;;;;39.80;30.20;;;;;;;;;;5102126;28;20233;-78
2022/10/01 04:06:39;;;;;;;36.57;28.40;;;;;;;;;;5111364;28;20630;-76
2022/10/01 04:09:08;;;;;;;39.43;29.00;;;;;;;;;;5091402;28;20576;-78
2022/10/01 04:11:38;;;;;;;32.90;27.03;;;;;;;;;;5092025;28;20218;-76
2022/10/01 04:14:07;;;;;;;33.27;26.77;;;;;;;;;;5092245;28;20210;-77
2022/10/01 04:16:36;;;;;;;38.83;28.33;;;;;;;;;;5098081;28;20211;-76
2022/10/01 04:19:04;;;;;;;35.00;26.90;;;;;;;;;;5091743;28;20765;-76
2022/10/01 04:21:35;;;;;;;34.30;27.30;;;;;;;;;;5091733;28;20210;-77
2022/10/01 04:24:05;;;;;;;40.57;28.70;;;;;;;;;;5091389;28;20643;-78
2022/10/01 04:26:34;;;;;;;40.50;30.33;;;;;;;;;;5091610;28;20211;-78
2022/10/01 04:29:02;;;;;;;35.50;27.77;;;;;;;;;;5091562;28;20509;-76
2022/10/01 04:31:33;;;;;;;34.37;26.83;;;;;;;;;;5091909;28;20637;-76
2022/10/01 04:34:03;;;;;;;32.57;26.47;;;;;;;;;;5091300;28;20356;-77
2022/10/01 04:36:34;;;;;;;31.67;26.07;;;;;;;;;;5091279;28;20213;-77
2022/10/01 04:39:03;;;;;;;28.30;24.47;;;;;;;;;;5090952;28;20260;-77
2022/10/01 04:41:33;;;;;;;31.13;24.87;;;;;;;;;;5091509;28;20211;-78
2022/10/01 04:44:01;;;;;;;33.37;24.97;;;;;;;;;;5091216;28;20699;-77
2022/10/01 04:46:31;;;;;;;30.20;25.30;;;;;;;;;;5091994;28;20211;-79
2022/10/01 04:48:59;;;;;;;28.93;24.60;;;;;;;;;;5097980;28;20294;-79
2022/10/01 04:51:30;;;;;;;28.67;23.90;;;;;;;;;;5091837;28;20328;-77
2022/10/01 04:53:58;;;;;;;30.57;23.10;;;;;;;;;;5091411;28;20294;-77
2022/10/01 04:56:27;;;;;;;24.73;21.63;;;;;;;;;;5091920;28;20210;-79
2022/10/01 04:59:02;;;;;;;24.23;21.40;;;;;;;;;;5091583;28;20203;-78
2022/10/01 05:01:32;;;;;;;24.00;20.70;;;;;;;;;;5094494;28;20229;-78
2022/10/01 05:04:01;;;;;;;24.23;21.47;;;;;;;;;;5095740;28;20227;-76
2022/10/01 05:06:29;;;;;;;22.30;19.90;;;;;;;;;;5095363;28;20214;-77
2022/10/01 05:08:57;;;;;;;23.00;20.50;;;;;;;;;;5095045;28;21242;-77
2022/10/01 05:11:26;;;;;;;22.70;19.80;;;;;;;;;;5095542;28;20218;-76
2022/10/01 05:13:54;;;;;;;20.70;18.37;;;;;;;;;;5095373;28;20207;-78
2022/10/01 05:16:24;;;;;;;20.50;18.23;;;;;;;;;;5105858;28;20206;-76
2022/10/01 05:18:53;;;;;;;23.43;19.37;;;;;;;;;;5119016;28;20680;-76
2022/10/01 05:21:21;;;;;;;20.77;17.87;;;;;;;;;;5116563;28;20206;-76
2022/10/01 05:23:51;;;;;;;22.17;18.63;;;;;;;;;;5115725;28;20209;-77
2022/10/01 05:26:24;;;;;;;19.97;17.77;;;;;;;;;;5105869;28;20210;-77
2022/10/01 05:28:52;;;;;;;18.77;16.87;;;;;;;;;;5094218;28;20230;-78
2022/10/01 05:31:22;;;;;;;19.33;17.37;;;;;;;;;;5101412;28;20222;-77
2022/10/01 05:33:52;;;;;;;18.97;17.07;;;;;;;;;;5116338;28;20233;-77
2022/10/01 05:36:20;;;;;;;18.40;16.60;;;;;;;;;;5115767;28;20206;-78
2022/10/01 05:38:51;;;;;;;18.50;16.60;;;;;;;;;;5114972;28;20679;-77
2022/10/01 05:41:19;;;;;;;17.37;15.57;;;;;;;;;;5111785;28;20205;-76
2022/10/01 05:43:50;;;;;;;16.83;15.07;;;;;;;;;;5094727;28;20207;-77
2022/10/01 05:46:21;;;;;;;15.97;14.37;;;;;;;;;;5094488;28;20202;-78
2022/10/01 05:48:53;;;;;;;14.90;13.40;;;;;;;;;;5094137;28;20226;-78
2022/10/01 05:51:22;;;;;;;12.57;11.37;;;;;;;;;;5094356;28;20215;-79
2022/10/01 05:53:54;;;;;;;11.13;10.07;;;;;;;;;;5094605;28;20543;-77
2022/10/01 05:56:23;;;;;;;10.80;9.80;;;;;;;;;;5094683;28;20213;-79
2022/10/01 05:58:52;;;;;;;11.20;10.00;;;;;;;;;;5097460;28;20672;-78
2022/10/01 06:01:21;;;;;;;10.53;9.50;;;;;;;;;;5105953;28;20209;-75
2022/10/01 06:03:51;;;;;;;11.00;9.90;;;;;;;;;;5106316;28;20207;-78
2022/10/01 06:06:22;;;;;;;12.67;9.43;;;;;;;;;;5103470;28;20264;-77
2022/10/01 06:08:51;;;;;;;11.53;10.33;;;;;;;;;;5105144;28;20215;-79
2022/10/01 06:11:26;;;;;;;11.00;9.90;;;;;;;;;;5115202;28;20218;-76
2022/10/01 06:13:54;;;;;;;10.97;9.87;;;;;;;;;;5116057;28;20197;-76
2022/10/01 06:16:22;;;;;;;11.37;9.80;;;;;;;;;;5114988;28;20214;-77
2022/10/01 06:18:56;;;;;;;10.17;9.17;;;;;;;;;;5113734;28;20225;-78
2022/10/01 06:21:29;;;;;;;10.80;9.70;;;;;;;;;;5114454;28;20210;-76
2022/10/01 06:23:59;;;;;;;10.23;9.13;;;;;;;;;;5114186;28;20263;-78
2022/10/01 06:26:28;;;;;;;10.60;9.50;;;;;;;;;;5113719;28;20202;-77
2022/10/01 06:28:56;;;;;;;10.17;9.17;;;;;;;;;;5114055;28;20222;-78
2022/10/01 06:31:24;;;;;;;9.73;8.83;;;;;;;;;;5114359;28;20260;-78
2022/10/01 06:33:55;;;;;;;10.27;8.90;;;;;;;;;;5113769;28;20703;-75
2022/10/01 06:36:25;;;;;;;9.33;8.43;;;;;;;;;;5101276;28;20222;-76
2022/10/01 06:38:53;;;;;;;9.60;8.53;;;;;;;;;;5093427;28;20238;-76
2022/10/01 06:41:22;;;;;;;9.63;8.73;;;;;;;;;;5098400;28;20607;-76
2022/10/01 06:43:51;;;;;;;9.90;7.37;;;;;;;;;;5109172;28;20225;-76
2022/10/01 06:46:19;;;;;;;11.50;7.90;;;;;;;;;;5107598;28;20213;-77
2022/10/01 06:48:48;;;;;;;9.43;7.60;;;;;;;;;;5111539;28;20260;-76
2022/10/01 06:52:47;;;;;;;8.27;7.27;;;;;;;;;;5093285;28;20763;-77
2022/10/01 06:54:07;;;;;;;8.23;6.73;;;;;;;;;;5100851;28;20203;-76
2022/10/01 06:56:36;;;;;;;8.93;7.23;;;;;;;;;;5106734;27;20558;-78
2022/10/01 06:59:04;;;;;;;8.27;7.30;;;;;;;;;;5118129;27;20305;-78
2022/10/01 07:01:33;;;;;;;7.70;6.93;;;;;;;;;;5092417;28;20676;-76
2022/10/01 07:04:03;;;;;;;7.73;6.93;;;;;;;;;;5107855;28;20202;-77
2022/10/01 07:06:33;;;;;;;8.53;7.13;;;;;;;;;;5107509;28;20221;-77
2022/10/01 07:09:01;;;;;;;8.27;7.10;;;;;;;;;;5111391;28;20218;-77
2022/10/01 07:11:31;;;;;;;8.50;7.00;;;;;;;;;;5108499;28;20283;-76
2022/10/01 07:14:01;;;;;;;8.10;6.80;;;;;;;;;;5103676;27;20216;-77
2022/10/01 07:16:32;;;;;;;8.43;7.10;;;;;;;;;;5106655;28;20287;-77
2022/10/01 07:19:01;;;;;;;8.00;7.10;;;;;;;;;;5105558;28;20288;-78
2022/10/01 07:21:29;;;;;;;8.73;6.80;;;;;;;;;;5104481;28;20217;-78
2022/10/01 07:23:58;;;;;;;7.93;7.07;;;;;;;;;;5110242;28;20217;-78
2022/10/01 07:26:26;;;;;;;7.70;6.70;;;;;;;;;;5112007;28;20202;-77
2022/10/01 07:28:56;;;;;;;8.13;6.90;;;;;;;;;;5108473;28;20263;-75
2022/10/01 07:31:24;;;;;;;8.50;6.83;;;;;;;;;;5112584;28;20209;-77
2022/10/01 07:33:57;;;;;;;9.37;6.77;;;;;;;;;;5112245;28;20228;-78
2022/10/01 07:36:26;;;;;;;7.83;7.00;;;;;;;;;;5105915;28;20203;-79
2022/10/01 07:38:58;;;;;;;7.83;6.40;;;;;;;;;;5105370;28;20217;-78
2022/10/01 07:41:26;;;;;;;7.00;6.30;;;;;;;;;;5105438;28;20206;-78
2022/10/01 07:43:57;;;;;;;8.70;7.80;;;;;;;;;;5101759;28;20208;-77
2022/10/01 07:46:25;;;;;;;7.53;6.80;;;;;;;;;;5111785;28;20217;-78
2022/10/01 07:48:57;;;;;;;7.60;6.83;;;;;;;;;;5112123;28;20217;-77
2022/10/01 07:51:26;;;;;;;7.73;6.53;;;;;;;;;;5097846;28;20644;-77
2022/10/01 07:53:57;;;;;;;7.87;6.57;;;;;;;;;;5091846;28;20217;-77
2022/10/01 07:56:26;;;;;;;7.10;6.30;;;;;;;;;;5092904;28;20249;-78
2022/10/01 07:58:57;;;;;;;7.70;5.73;;;;;;;;;;5092333;28;20618;-79
2022/10/01 08:01:26;;;;;;;6.80;6.07;;;;;;;;;;5097284;28;20604;-77
2022/10/01 08:03:54;;;;;;;7.83;6.00;;;;;;;;;;5107853;28;20288;-78
2022/10/01 08:06:23;;;;;;;6.33;5.73;;;;;;;;;;5099828;28;20202;-76
2022/10/01 08:08:53;;;;;;;7.77;5.63;;;;;;;;;;5091139;28;20210;-76
2022/10/01 08:11:21;;;;;;;7.13;5.57;;;;;;;;;;5108044;28;20232;-76
2022/10/01 08:13:49;;;;;;;5.80;5.20;;;;;;;;;;5110930;28;20218;-80
2022/10/01 08:16:19;;;;;;;5.83;4.93;;;;;;;;;;5097344;28;20211;-76
2022/10/01 08:18:49;;;;;;;5.50;4.70;;;;;;;;;;5096211;28;20228;-78
2022/10/01 08:21:17;;;;;;;5.10;4.60;;;;;;;;;;5100170;28;20362;-80
2022/10/01 08:23:45;;;;;;;5.97;4.00;;;;;;;;;;5095063;28;20393;-81
2022/10/01 08:26:14;;;;;;;4.00;3.60;;;;;;;;;;5096812;28;20238;-82
2022/10/01 08:28:43;;;;;;;4.10;3.53;;;;;;;;;;5100056;28;20213;-78
2022/10/01 08:31:11;;;;;;;3.97;3.50;;;;;;;;;;5111942;28;20226;-76
2022/10/01 08:33:41;;;;;;;3.50;3.20;;;;;;;;;;5096704;28;20210;-79
2022/10/01 08:36:10;;;;;;;4.47;2.90;;;;;;;;;;5095499;28;20731;-77
2022/10/01 08:38:39;;;;;;;3.60;2.80;;;;;;;;;;5104846;28;20290;-80
2022/10/01 08:41:10;;;;;;;5.53;2.73;;;;;;;;;;5115598;28;20212;-80
2022/10/01 08:43:42;;;;;;;3.10;2.63;;;;;;;;;;5115288;28;20213;-80
2022/10/01 08:46:14;;;;;;;3.30;2.57;;;;;;;;;;5112278;28;20198;-78
2022/10/01 08:48:52;;;;;;;3.67;2.53;;;;;;;;;;5114132;28;20724;-77
2022/10/01 08:51:26;;;;;;;4.37;2.60;;;;;;;;;;5115764;28;20197;-80
2022/10/01 08:53:56;;;;;;;3.10;2.40;;;;;;;;;;5114433;28;20234;-79
2022/10/01 08:56:28;;;;;;;2.13;2.00;;;;;;;;;;5102046;28;20242;-79
2022/10/01 08:58:58;;;;;;;3.33;2.20;;;;;;;;;;5095122;28;20191;-77
2022/10/01 09:01:27;;;;;;;3.37;2.60;;;;;;;;;;5095834;28;20211;-78
2022/10/01 09:03:57;;;;;;;4.20;2.40;;;;;;;;;;5095615;28;20207;-78
2022/10/01 09:06:27;;;;;;;3.53;2.50;;;;;;;;;;5095357;28;20226;-78
2022/10/01 09:09:15;;;;;;;5.50;5.00;;;;;;;;;;5095231;28;20237;-79
2022/10/01 09:11:48;;;;;;;3.87;3.27;;;;;;;;;;5095587;28;20238;-78
2022/10/01 09:14:23;;;;;;;4.70;3.63;;;;;;;;;;5113733;28;20206;-79
2022/10/01 09:16:54;;;;;;;5.03;3.00;;;;;;;;;;5115783;28;20193;-76
2022/10/01 09:19:35;;;;;;;6.47;5.23;;;;;;;;;;5115738;28;20198;-79
2022/10/01 09:22:11;;;;;;;7.37;6.67;;;;;;;;;;5115798;28;20200;-79
2022/10/01 09:24:43;;;;;;;5.80;4.10;;;;;;;;;;5115276;28;20225;-77
2022/10/01 09:27:14;;;;;;;5.57;4.20;;;;;;;;;;5112214;28;20217;-77
2022/10/01 09:29:44;;;;;;;4.83;3.20;;;;;;;;;;5113265;28;20211;-77
2022/10/01 09:32:16;;;;;;;3.20;2.80;;;;;;;;;;5107024;28;20235;-77
2022/10/01 09:34:49;;;;;;;2.43;2.23;;;;;;;;;;5104938;28;20221;-79
2022/10/01 09:37:23;;;;;;;2.70;2.50;;;;;;;;;;5095000;28;20205;-78
2022/10/01 09:40:00;;;;;;;4.20;3.80;;;;;;;;;;5111934;28;20201;-78
2022/10/01 09:42:30;;;;;;;4.40;4.00;;;;;;;;;;5115210;28;20596;-80
2022/10/01 09:45:01;;;;;;;3.07;2.67;;;;;;;;;;5097431;28;20202;-79
2022/10/01 09:47:29;;;;;;;3.07;2.07;;;;;;;;;;5114474;28;20206;-79
2022/10/01 09:50:00;;;;;;;2.10;1.90;;;;;;;;;;5110604;28;20225;-79
2022/10/01 09:52:32;;;;;;;2.97;1.43;;;;;;;;;;5115969;28;20190;-78
2022/10/01 09:55:03;;;;;;;3.50;1.47;;;;;;;;;;5108935;28;20194;-78
2022/10/01 09:57:34;;;;;;;2.47;2.03;;;;;;;;;;5107082;28;20636;-76
2022/10/01 10:00:06;;;;;;;2.20;1.67;;;;;;;;;;5111823;28;20202;-77
2022/10/01 10:02:40;;;;;;;2.57;2.37;;;;;;;;;;5109800;28;20230;-78
2022/10/01 10:05:18;;;;;;;5.00;2.20;;;;;;;;;;5109669;28;20194;-78
2022/10/01 10:07:48;;;;;;;2.60;1.80;;;;;;;;;;5120092;28;20194;-78
2022/10/01 10:10:21;;;;;;;2.23;1.57;;;;;;;;;;5118183;28;20368;-74
2022/10/01 10:12:56;;;;;;;2.90;1.53;;;;;;;;;;5110223;28;20305;-75
2022/10/01 10:15:25;;;;;;;2.97;1.50;;;;;;;;;;5110726;28;20206;-78
2022/10/01 10:17:54;;;;;;;4.33;2.37;;;;;;;;;;5113431;28;20225;-77
2022/10/01 10:20:38;;;;;;;3.83;1.80;;;;;;;;;;5108396;28;20211;-76
2022/10/01 10:23:11;;;;;;;3.67;1.87;;;12.40;99.90;;;;;;5107526;28;20293;-78
2022/10/01 10:25:40;;;;;;;3.23;2.07;;;12.20;99.90;;;;;;5113102;28;20240;-79
2022/10/01 10:28:19;;;;;;;2.00;1.90;;;12.00;99.90;;;;;;5107680;28;20194;-76
2022/10/01 10:30:49;;;;;;;4.00;2.10;;;11.80;99.90;;;;;;5102434;28;20314;-77
2022/10/01 10:33:19;;;;;;;1.70;1.60;;;11.80;99.90;;;;;;5111754;28;20209;-82
2022/10/01 10:36:01;;;;;;;1.93;1.80;;;11.60;99.90;;;;;;5103479;28;20209;-79
2022/10/01 10:38:33;;;;;;;2.67;1.93;;;11.70;99.90;;;;;;5107950;28;20260;-78
2022/10/01 10:41:02;;;;;;;2.07;1.90;;;11.60;99.90;;;;;;5111872;28;20190;-82
2022/10/01 10:43:37;;;;;;;2.93;2.20;;;11.50;99.90;;;;;;5093345;28;20207;-82
2022/10/01 10:46:07;;;;;;;4.87;2.10;;;11.50;99.90;;;;;;5110078;28;20214;-81
2022/10/01 10:48:39;;;;;;;2.80;2.30;;;11.50;99.90;;;;;;5109611;28;20675;-79
2022/10/01 10:51:09;;;;;;;3.37;2.50;;;11.40;99.90;;;;;;5112412;28;20210;-79
2022/10/01 10:53:42;;;;;;;3.90;2.40;;;11.40;99.90;;;;;;5106769;28;20208;-81
2022/10/01 10:56:20;;;;;;;3.53;2.50;;;11.40;99.90;;;;;;5101666;28;20652;-79
2022/10/01 10:58:50;;;;;;;2.80;2.10;;;11.40;99.90;;;;;;5104542;28;20593;-78
2022/10/01 11:01:25;;;;;;;2.97;2.10;;;11.40;99.90;;;;;;5102093;28;20202;-79
2022/10/01 11:03:56;;;;;;;3.80;2.43;;;11.40;99.90;;;;;;5098402;28;20317;-80
2022/10/01 11:06:26;;;;;;;4.10;2.57;;;11.30;99.90;;;;;;5092563;28;20223;-78
2022/10/01 11:09:07;;;;;;;2.80;2.47;;;11.30;99.90;;;;;;5092606;28;20230;-80
2022/10/01 11:11:49;;;;;;;3.80;2.50;;;11.20;99.90;;;;;;5092110;28;20230;-81
2022/10/01 11:14:41;;;;;;;3.67;2.80;;;11.20;99.90;;;;;;5092119;28;20219;-80
2022/10/01 11:17:35;;;;;;;4.90;2.67;;;11.20;99.90;;;;;;5091954;28;20237;-82
2022/10/01 11:20:16;;;;;;;4.27;3.00;;;11.20;99.90;;;;;;5092472;28;20187;-80
2022/10/01 11:22:58;;;;;;;4.10;2.67;;;11.10;99.90;;;;;;5091857;28;20318;-79
2022/10/01 11:25:40;;;;;;;3.60;2.70;;;11.10;99.90;;;;;;5092351;28;20248;-81
2022/10/01 11:28:27;;;;;;;3.17;2.50;;;11.10;99.90;;;;;;5093520;28;20211;-79
2022/10/01 11:31:05;;;;;;;5.03;3.20;;;11.00;99.90;;;;;;5097026;28;20231;-79
2022/10/01 11:33:46;;;;;;;6.87;3.93;;;11.00;99.90;;;;;;5096389;28;20230;-80
2022/10/01 11:36:23;;;;;;;3.10;2.67;;;11.00;99.90;;;;;;5112273;28;20193;-80
2022/10/01 11:39:00;;;;;;;4.67;2.73;;;11.00;99.90;;;;;;5107971;28;20237;-82
2022/10/01 11:41:34;;;;;;;4.30;3.13;;;11.00;99.90;;;;;;5095987;28;20194;-80
2022/10/01 11:44:07;;;;;;;7.97;6.63;;;10.90;99.90;;;;;;5092203;28;20201;-80
2022/10/01 11:46:44;;;;;;;5.30;4.63;;;10.90;99.90;;;;;;5091652;28;20202;-79
2022/10/01 11:49:46;;;;;;;7.53;6.00;;;10.90;99.90;;;;;;5111914;28;20213;-77
2022/10/01 11:52:22;;;;;;;9.63;6.23;;;10.90;99.90;;;;;;5105235;28;20222;-77
2022/10/01 11:58:49;;;;;;;4.80;3.97;;;10.90;99.90;;;;;;5091446;28;20213;-79
2022/10/01 12:00:41;;;;;;;7.20;4.00;;;10.70;99.90;;;;;;5098565;28;20205;-79
2022/10/01 12:03:18;;;;;;;5.23;3.20;;;10.80;99.90;;;;;;5109627;28;20186;-79
2022/10/01 12:05:49;;;;;;;4.30;3.10;;;10.80;99.90;;;;;;5091886;28;20197;-77
2022/10/01 12:08:24;;;;;;;4.03;2.90;;;10.70;99.90;;;;;;5093407;28;20225;-78
2022/10/01 12:11:00;;;;;;;3.43;2.90;;;10.70;99.90;;;;;;5113434;28;20204;-77
2022/10/01 12:13:33;;;;;;;2.87;2.57;;;10.60;99.90;;;;;;5116186;28;20297;-77
2022/10/01 12:16:08;;;;;;;3.87;2.87;;;10.60;99.90;;;;;;5109932;28;20219;-75
2022/10/01 12:18:48;;;;;;;4.47;3.57;;;10.50;99.90;;;;;;5121746;27;20582;-78
2022/10/01 12:21:23;;;;;;;5.87;3.17;;;10.50;99.90;;;;;;5116243;28;20197;-78
2022/10/01 12:23:59;;;;;;;5.07;3.20;;;10.60;99.90;;;;;;5115834;28;20678;-79
2022/10/01 12:26:38;;;;;;;4.33;2.73;;;10.50;99.90;;;;;;5100591;28;20201;-78
2022/10/01 12:29:14;;;;;;;4.57;3.07;;;10.50;99.90;;;;;;5115636;28;20277;-78
2022/10/01 12:31:51;;;;;;;4.50;3.37;;;10.50;99.90;;;;;;5118046;27;20221;-78
2022/10/01 12:34:30;;;;;;;6.27;4.80;;;10.50;99.90;;;;;;5096387;28;20215;-77
2022/10/01 12:37:11;;;;;;;4.13;3.20;;;10.50;99.90;;;;;;5105174;28;20191;-78
2022/10/01 12:39:51;;;;;;;6.13;4.07;;;10.40;99.90;;;;;;5115896;28;20194;-77
2022/10/01 12:42:41;;;;;;;4.60;3.60;;;10.50;99.90;;;;;;5095129;28;20199;-79
2022/10/01 12:45:19;;;;;;;6.77;5.43;;;10.40;99.90;;;;;;5095631;28;20211;-77
2022/10/01 12:47:52;;;;;;;3.33;2.70;;;10.40;99.90;;;;;;5095201;28;20187;-78
2022/10/01 12:50:27;;;;;;;3.37;2.67;;;10.40;99.90;;;;;;5114376;28;20790;-78
2022/10/01 12:53:15;;;;;;;3.23;2.70;;;10.40;99.90;;;;;;5096696;28;20226;-78
2022/10/01 12:55:56;;;;;;;2.90;2.60;;;10.50;99.90;;;;;;5095246;28;20282;-76
2022/10/01 12:58:55;;;;;;;3.17;2.27;;;10.50;99.90;;;;;;5095042;28;20203;-79
2022/10/01 13:01:37;;;;;;;4.77;3.40;;;10.40;99.90;;;;;;5095791;28;20210;-78
2022/10/01 13:04:48;;;;;;;4.60;3.60;;;10.40;99.90;;;;;;5108522;28;20244;-80
2022/10/01 13:07:34;;;;;;;3.23;2.70;;;10.50;99.90;;;;;;5032862;28;20212;-78
2022/10/01 13:10:14;;;;;;;3.27;2.70;;;10.50;99.90;;;;;;5032165;28;20232;-80
2022/10/01 13:13:00;;;;;;;4.30;3.07;;;10.50;99.90;;;;;;5077810;28;20246;-78
2022/10/01 13:15:36;;;;;;;6.53;4.33;;;10.50;99.90;;;;;;5110123;28;20244;-80
2022/10/01 13:18:15;;;;;;;7.87;6.03;;;10.50;99.90;;;;;;5115179;28;20532;-80
2022/10/01 13:20:52;;;;;;;6.27;4.20;;;10.50;99.90;;;;;;5114252;28;20646;-80
2022/10/01 13:23:29;;;;;;;3.27;2.70;;;10.50;99.90;;;;;;5114357;28;20212;-78
2022/10/01 13:26:05;;;;;;;3.30;3.00;;;10.50;99.90;;;;;;5104846;28;20210;-80
2022/10/01 13:28:50;;;;;;;3.00;2.70;;;10.50;99.90;;;;;;5114796;28;20673;-80
2022/10/01 13:31:19;;;;;;;3.30;2.37;;;10.50;99.90;;;;;;5114569;28;20273;-78
2022/10/01 13:33:57;;;;;;;2.60;2.40;;;10.50;99.90;;;;;;5114347;28;20787;-78
2022/10/01 13:36:30;;;;;;;4.47;2.90;;;10.50;99.90;;;;;;5114690;28;20214;-80
2022/10/01 13:39:01;;;;;;;3.10;2.27;;;10.50;99.90;;;;;;5113144;28;20202;-80
2022/10/01 13:41:31;;;;;;;3.50;2.77;;;10.50;99.90;;;;;;5115181;28;20186;-78
2022/10/01 13:44:23;;;;;;;4.20;3.50;;;10.50;99.90;;;;;;5095227;28;20699;-79
2022/10/01 13:46:56;;;;;;;4.73;3.90;;;10.50;99.90;;;;;;5094246;28;20217;-78
2022/10/01 13:49:27;;;;;;;3.37;2.53;;;10.60;99.90;;;;;;5093563;28;20587;-79
2022/10/01 13:51:55;;;;;;;4.60;3.60;;;10.60;99.90;;;;;;5093527;28;20749;-78
2022/10/01 13:54:35;;;;;;;4.93;2.80;;;10.60;99.90;;;;;;5094045;28;20211;-80
2022/10/01 13:57:29;;;;;;;3.03;2.70;;;10.60;99.90;;;;;;5093315;28;20262;-78
2022/10/01 13:59:59;;;;;;;4.07;3.17;;;10.60;99.90;;;;;;5099868;28;20203;-80
2022/10/01 14:02:43;;;;;;;4.17;3.70;;;10.60;99.90;;;;;;5111756;28;20671;-81
2022/10/01 14:05:28;;;;;;;5.20;3.57;;;10.70;99.90;;;;;;5113848;28;20232;-77
2022/10/01 14:08:06;;;;;;;4.93;3.33;;;10.70;99.90;;;;;;5123245;28;20198;-81
2022/10/01 14:15:57;;;;;;;2.73;2.47;;;10.60;99.90;;;;;;5108189;28;20198;-81
2022/10/01 14:16:19;;;;;;;2.67;2.47;;;10.60;99.90;;;;;;5115434;28;20234;-79
2022/10/01 14:18:50;;;;;;;2.67;1.80;;;10.60;99.90;;;;;;5116964;28;20209;-78
2022/10/01 14:21:30;;;;;;;2.00;1.80;;;10.60;99.90;;;;;;5119814;28;20198;-78
2022/10/01 14:24:06;;;;;;;1.90;1.70;;;10.70;99.90;;;;;;5112042;28;20206;-78
2022/10/01 14:26:41;;;;;;;2.73;1.80;;;10.70;99.90;;;;;;5110142;28;20659;-79
2022/10/01 14:29:22;;;;;;;1.77;1.57;;;10.70;99.90;;;;;;5108909;28;20194;-76
2022/10/01 14:31:59;;;;;;;2.00;1.70;;;10.70;99.90;;;;;;5109058;28;20187;-79
2022/10/01 14:34:42;;;;;;;3.77;1.80;;;10.80;99.90;;;;;;5103264;28;20201;-81
2022/10/01 14:37:15;;;;;;;3.03;2.03;;;10.90;99.90;;;;;;5108887;28;20196;-81